NCAR-RAP Real-Time Weather Data

Output produced by METARs form (08 May 2021  02:16 UTC)
found at http://weather.rap.ucar.edu/surface/
 
KMNH 080155Z AUTO 14011KT 10SM CLR 15/01 A2996 RMK AO2
KMNH 080135Z AUTO 16012KT 10SM CLR 16/01 A2996 RMK AO2
KMNH 080115Z AUTO 15008KT 10SM CLR 16/01 A2997 RMK AO2
KMNH 080055Z AUTO 15013KT 10SM CLR 18/01 A2998 RMK AO2
KMNH 080035Z AUTO 15004KT 10SM SCT075 SCT090 SCT120 18/01 A2999 RMK AO2
KMNH 080015Z AUTO 20015G20KT 10SM OVC090 18/01 A3001 RMK AO2
KMNH 072355Z AUTO 23005KT 10SM OVC100 19/02 A3001 RMK AO2
KMNH 072335Z AUTO 00000KT 10SM SCT100 20/00 A3001 RMK AO2
KMNH 072315Z AUTO 00000KT 10SM CLR 20/M02 A3001 RMK AO2
KMNH 072255Z AUTO 00000KT 10SM CLR 21/M03 A3001 RMK AO2
KMNH 072235Z AUTO 23005KT 10SM CLR 21/M01 A3001 RMK AO2
KMNH 072215Z AUTO 28005KT 10SM SCT080 21/M01 A3002 RMK AO2
KMNH 072155Z AUTO 20008G25KT 10SM BKN090 BKN110 21/M01 A3003 RMK AO2
KMNH 072135Z AUTO 15007KT 10SM SCT075 SCT100 OVC120 20/M01 A3004 RMK AO2
KMNH 072115Z AUTO 20008G23KT 10SM BKN090 OVC120 20/M03 A3004 RMK AO2
KMNH 072055Z AUTO 09012G16KT 10SM BKN110 20/M01 A3004 RMK AO2
KMNH 072035Z AUTO 11008KT 10SM CLR 20/M03 A3005 RMK AO2
KMNH 072015Z AUTO 13010KT 10SM CLR 21/M02 A3005 RMK AO2
KMNH 071955Z AUTO 12004KT 10SM CLR 21/M02 A3005 RMK AO2
KMNH 071935Z AUTO 10SM CLR 22/M05 A3006 RMK AO2
KMNH 071915Z AUTO 12005KT 10SM CLR 22/M03 A3007 RMK AO2
KMNH 071855Z AUTO 12004KT 10SM CLR 22/M05 A3008 RMK AO2
KMNH 071835Z AUTO 01006KT 10SM CLR 22/M04 A3009 RMK AO2
KMNH 071815Z AUTO 04005KT 10SM CLR 22/M03 A3011 RMK AO2
KMNH 071755Z AUTO 35005KT 10SM CLR 22/M03 A3012 RMK AO2
KMNH 071735Z AUTO 21003KT 10SM CLR 22/M06 A3013 RMK AO2
KMNH 071715Z AUTO 30003KT 10SM CLR 22/M05 A3014 RMK AO2
KMNH 071655Z AUTO 00000KT 10SM CLR 21/M06 A3014 RMK AO2
KMNH 071635Z AUTO 20004KT 10SM CLR 21/M04 A3015 RMK AO2
KMNH 071615Z AUTO 00000KT 10SM CLR 21/M05 A3015 RMK AO2
KMNH 071555Z AUTO 14003KT 10SM CLR 21/M05 A3016 RMK AO2
KMNH 071535Z AUTO 10SM CLR 20/M05 A3016 RMK AO2
KMNH 071515Z AUTO 00000KT 10SM CLR 20/M03 A3016 RMK AO2
KMNH 071455Z AUTO 23003KT 10SM CLR 18/M01 A3017 RMK AO2
KMNH 071435Z AUTO 23004KT 10SM CLR 17/00 A3017 RMK AO2
KMNH 071415Z AUTO 22005KT 10SM CLR 16/M01 A3017 RMK AO2
KMNH 071355Z AUTO 21006KT 10SM CLR 15/M01 A3017 RMK AO2
KMNH 071335Z AUTO 21007KT 10SM CLR 13/M02 A3017 RMK AO2
KMNH 071315Z AUTO 21009KT 10SM CLR 12/M02 A3017 RMK AO2
KMNH 071255Z AUTO 21009KT 10SM CLR 12/M04 A3017 RMK AO2
KMNH 071235Z AUTO 20007KT 10SM CLR 10/M03 A3017 RMK AO2